KTOL/TOL METAR and TAF weather

Enter ICAO airport designator
Station Type Date Time Source
KTOL METAR 2021/08/05 02:52 UTC NOAA

KTOL 050252Z 00000KT 10SM CLR 18/13 A3013 RMK AO2 SLP199 T01830133 53014


Station Type Date Time Source
KTOL Decoded METAR 2021/08/05 02:52 UTC NOAA

TOLEDO EXPRESS AIRPORT, OH, United States (KTOL) 41-35N 083-48W 210M
Aug 04, 2021 - 10:52 PM EDT / 2021.08.05 0252 UTC
Wind: Calm:0
Visibility: 10 mile(s):0
Sky conditions: clear
Temperature: 64.9 F (18.3 C)
Dew Point: 55.9 F (13.3 C)
Relative Humidity: 72%
Pressure (altimeter): 30.13 in. Hg (1020 hPa)
Pressure tendency: 0.04 inches (1.4 hPa) higher than three hours ago
ob: KTOL 050252Z 00000KT 10SM CLR 18/13 A3013 RMK AO2 SLP199 T01830133 53014
cycle: 3

Station Type Date Time Source
KTOL TAF 2021/08/04 18:24 UTC NOAA

TAF KTOL 041721Z 0418/0518 VRB03KT P6SM SCT060
FM050300 VRB03KT P6SM SKC

Example: see airport list